sensor_id;sensor_type;location;lat;lon;timestamp;pressure;altitude;pressure_sealevel;temperature
19568;BMP280;9930;49.240;8.548;2023-04-06T00:01:27;100832.44;;;7.03
19568;BMP280;9930;49.240;8.548;2023-04-06T00:03:55;100818.34;;;6.93
19568;BMP280;9930;49.240;8.548;2023-04-06T00:06:21;100823.69;;;6.98
19568;BMP280;9930;49.240;8.548;2023-04-06T00:08:47;100819.31;;;6.95
19568;BMP280;9930;49.240;8.548;2023-04-06T00:11:18;100825.97;;;6.93
19568;BMP280;9930;49.240;8.548;2023-04-06T00:13:44;100820.72;;;6.90
19568;BMP280;9930;49.240;8.548;2023-04-06T00:16:10;100819.13;;;6.92
19568;BMP280;9930;49.240;8.548;2023-04-06T00:18:37;100812.22;;;6.90
19568;BMP280;9930;49.240;8.548;2023-04-06T00:21:03;100819.84;;;6.90
19568;BMP280;9930;49.240;8.548;2023-04-06T00:23:32;100824.81;;;6.88
19568;BMP280;9930;49.240;8.548;2023-04-06T00:25:57;100815.44;;;6.87
19568;BMP280;9930;49.240;8.548;2023-04-06T00:28:23;100814.41;;;6.83
19568;BMP280;9930;49.240;8.548;2023-04-06T00:30:57;100803.81;;;6.76
19568;BMP280;9930;49.240;8.548;2023-04-06T00:33:23;100809.66;;;6.75
19568;BMP280;9930;49.240;8.548;2023-04-06T00:35:51;100801.97;;;6.73
19568;BMP280;9930;49.240;8.548;2023-04-06T00:38:20;100809.94;;;6.79
19568;BMP280;9930;49.240;8.548;2023-04-06T00:40:46;100806.44;;;6.77
19568;BMP280;9930;49.240;8.548;2023-04-06T00:43:14;100808.78;;;6.74
19568;BMP280;9930;49.240;8.548;2023-04-06T00:45:43;100800.22;;;6.72
19568;BMP280;9930;49.240;8.548;2023-04-06T00:48:12;100788.66;;;6.63
19568;BMP280;9930;49.240;8.548;2023-04-06T00:50:43;100779.41;;;6.63
19568;BMP280;9930;49.240;8.548;2023-04-06T00:53:14;100794.00;;;6.67
19568;BMP280;9930;49.240;8.548;2023-04-06T00:55:40;100786.72;;;6.59
19568;BMP280;9930;49.240;8.548;2023-04-06T00:58:06;100782.44;;;6.58
19568;BMP280;9930;49.240;8.548;2023-04-06T01:00:35;100789.44;;;6.62
19568;BMP280;9930;49.240;8.548;2023-04-06T01:03:01;100785.84;;;6.58
19568;BMP280;9930;49.240;8.548;2023-04-06T01:05:34;100786.66;;;6.57
19568;BMP280;9930;49.240;8.548;2023-04-06T01:08:02;100790.84;;;6.57
19568;BMP280;9930;49.240;8.548;2023-04-06T01:10:29;100774.22;;;6.47
19568;BMP280;9930;49.240;8.548;2023-04-06T01:12:54;100797.38;;;6.53
19568;BMP280;9930;49.240;8.548;2023-04-06T01:15:24;100781.63;;;6.44
19568;BMP280;9930;49.240;8.548;2023-04-06T01:17:52;100775.50;;;6.40
19568;BMP280;9930;49.240;8.548;2023-04-06T01:20:21;100787.75;;;6.47
19568;BMP280;9930;49.240;8.548;2023-04-06T01:22:47;100791.84;;;6.45
19568;BMP280;9930;49.240;8.548;2023-04-06T01:25:13;100767.53;;;6.34
19568;BMP280;9930;49.240;8.548;2023-04-06T01:27:38;100769.19;;;6.34
19568;BMP280;9930;49.240;8.548;2023-04-06T01:30:08;100778.81;;;6.39
19568;BMP280;9930;49.240;8.548;2023-04-06T01:32:34;100775.31;;;6.37
19568;BMP280;9930;49.240;8.548;2023-04-06T01:35:03;100772.50;;;6.33
19568;BMP280;9930;49.240;8.548;2023-04-06T01:37:29;100759.38;;;6.25
19568;BMP280;9930;49.240;8.548;2023-04-06T01:39:57;100773.28;;;6.32
19568;BMP280;9930;49.240;8.548;2023-04-06T01:42:23;100772.31;;;6.30
19568;BMP280;9930;49.240;8.548;2023-04-06T01:44:51;100762.00;;;6.27
19568;BMP280;9930;49.240;8.548;2023-04-06T01:47:17;100767.06;;;6.27
19568;BMP280;9930;49.240;8.548;2023-04-06T01:49:45;100759.09;;;6.21
19568;BMP280;9930;49.240;8.548;2023-04-06T01:52:10;100759.78;;;6.18
19568;BMP280;9930;49.240;8.548;2023-04-06T01:54:39;100758.06;;;6.17
19568;BMP280;9930;49.240;8.548;2023-04-06T01:57:07;100769.22;;;6.21
19568;BMP280;9930;49.240;8.548;2023-04-06T01:59:35;100754.28;;;6.10
19568;BMP280;9930;49.240;8.548;2023-04-06T02:02:01;100767.91;;;6.12
19568;BMP280;9930;49.240;8.548;2023-04-06T02:04:27;100767.03;;;6.12
19568;BMP280;9930;49.240;8.548;2023-04-06T02:06:55;100752.94;;;6.02
19568;BMP280;9930;49.240;8.548;2023-04-06T02:09:21;100769.19;;;6.06
19568;BMP280;9930;49.240;8.548;2023-04-06T02:11:46;100765.31;;;5.98
19568;BMP280;9930;49.240;8.548;2023-04-06T02:14:15;100771.44;;;6.01
19568;BMP280;9930;49.240;8.548;2023-04-06T02:16:40;100758.41;;;5.95
19568;BMP280;9930;49.240;8.548;2023-04-06T02:19:07;100756.38;;;5.90
19568;BMP280;9930;49.240;8.548;2023-04-06T02:21:33;100758.69;;;5.86
19568;BMP280;9930;49.240;8.548;2023-04-06T02:24:01;100758.47;;;5.83
19568;BMP280;9930;49.240;8.548;2023-04-06T02:26:27;100761.00;;;5.83
19568;BMP280;9930;49.240;8.548;2023-04-06T02:28:53;100763.81;;;5.88
19568;BMP280;9930;49.240;8.548;2023-04-06T02:31:18;100755.19;;;5.84
19568;BMP280;9930;49.240;8.548;2023-04-06T02:33:46;100763.66;;;5.85
19568;BMP280;9930;49.240;8.548;2023-04-06T02:36:12;100768.59;;;5.83
19568;BMP280;9930;49.240;8.548;2023-04-06T02:38:41;100755.06;;;5.83
19568;BMP280;9930;49.240;8.548;2023-04-06T02:41:10;100755.66;;;5.79
19568;BMP280;9930;49.240;8.548;2023-04-06T02:43:40;100756.16;;;5.73
19568;BMP280;9930;49.240;8.548;2023-04-06T02:46:08;100760.72;;;5.79
19568;BMP280;9930;49.240;8.548;2023-04-06T02:48:34;100745.75;;;5.69
19568;BMP280;9930;49.240;8.548;2023-04-06T02:51:02;100753.72;;;5.75
19568;BMP280;9930;49.240;8.548;2023-04-06T02:53:30;100754.41;;;5.72
19568;BMP280;9930;49.240;8.548;2023-04-06T02:55:58;100756.06;;;5.72
19568;BMP280;9930;49.240;8.548;2023-04-06T02:58:24;100752.28;;;5.65
19568;BMP280;9930;49.240;8.548;2023-04-06T03:00:49;100761.72;;;5.68
19568;BMP280;9930;49.240;8.548;2023-04-06T03:03:15;100754.53;;;5.61
19568;BMP280;9930;49.240;8.548;2023-04-06T03:05:46;100752.88;;;5.61
19568;BMP280;9930;49.240;8.548;2023-04-06T03:08:15;100754.72;;;5.64
19568;BMP280;9930;49.240;8.548;2023-04-06T03:10:43;100754.63;;;5.62
19568;BMP280;9930;49.240;8.548;2023-04-06T03:13:11;100749.19;;;5.56
19568;BMP280;9930;49.240;8.548;2023-04-06T03:15:37;100743.25;;;5.56
19568;BMP280;9930;49.240;8.548;2023-04-06T03:18:03;100750.84;;;5.56
19568;BMP280;9930;49.240;8.548;2023-04-06T03:20:28;100751.50;;;5.53
19568;BMP280;9930;49.240;8.548;2023-04-06T03:22:54;100752.38;;;5.53
19568;BMP280;9930;49.240;8.548;2023-04-06T03:25:21;100753.25;;;5.54
19568;BMP280;9930;49.240;8.548;2023-04-06T03:27:46;100740.13;;;5.46
19568;BMP280;9930;49.240;8.548;2023-04-06T03:30:17;100742.66;;;5.46
19568;BMP280;9930;49.240;8.548;2023-04-06T03:32:46;100748.88;;;5.51
19568;BMP280;9930;49.240;8.548;2023-04-06T03:35:12;100755.50;;;5.49
19568;BMP280;9930;49.240;8.548;2023-04-06T03:37:43;100764.06;;;5.51
19568;BMP280;9930;49.240;8.548;2023-04-06T03:40:13;100761.34;;;5.48
19568;BMP280;9930;49.240;8.548;2023-04-06T03:42:40;100753.38;;;5.42
19568;BMP280;9930;49.240;8.548;2023-04-06T03:45:10;100767.97;;;5.46
19568;BMP280;9930;49.240;8.548;2023-04-06T03:47:41;100767.88;;;5.45
19568;BMP280;9930;49.240;8.548;2023-04-06T03:50:09;100757.16;;;5.36
19568;BMP280;9930;49.240;8.548;2023-04-06T03:52:35;100764.06;;;5.38
19568;BMP280;9930;49.240;8.548;2023-04-06T03:55:02;100775.06;;;5.39
19568;BMP280;9930;49.240;8.548;2023-04-06T03:57:30;100775.66;;;5.35
19568;BMP280;9930;49.240;8.548;2023-04-06T03:59:56;100779.94;;;5.36
19568;BMP280;9930;49.240;8.548;2023-04-06T04:02:21;100766.59;;;5.25
19568;BMP280;9930;49.240;8.548;2023-04-06T04:04:47;100767.38;;;5.24
19568;BMP280;9930;49.240;8.548;2023-04-06T04:07:13;100773.19;;;5.23
19568;BMP280;9930;49.240;8.548;2023-04-06T04:09:41;100772.22;;;5.21
19568;BMP280;9930;49.240;8.548;2023-04-06T04:12:10;100769.63;;;5.19
19568;BMP280;9930;49.240;8.548;2023-04-06T04:14:37;100777.28;;;5.21
19568;BMP280;9930;49.240;8.548;2023-04-06T04:17:03;100783.41;;;5.25
19568;BMP280;9930;49.240;8.548;2023-04-06T04:19:28;100784.00;;;5.20
19568;BMP280;9930;49.240;8.548;2023-04-06T04:21:54;100790.81;;;5.21
19568;BMP280;9930;49.240;8.548;2023-04-06T04:24:20;100774.97;;;5.11
19568;BMP280;9930;49.240;8.548;2023-04-06T04:26:46;100795.78;;;5.20
19568;BMP280;9930;49.240;8.548;2023-04-06T04:29:11;100797.34;;;5.18
19568;BMP280;9930;49.240;8.548;2023-04-06T04:31:43;100798.91;;;5.16
19568;BMP280;9930;49.240;8.548;2023-04-06T04:34:11;100781.38;;;5.06
19568;BMP280;9930;49.240;8.548;2023-04-06T04:36:39;100790.72;;;5.07
19568;BMP280;9930;49.240;8.548;2023-04-06T04:39:12;100794.31;;;5.10
19568;BMP280;9930;49.240;8.548;2023-04-06T04:41:40;100780.22;;;5.01
19568;BMP280;9930;49.240;8.548;2023-04-06T04:44:10;100781.84;;;5.00
19568;BMP280;9930;49.240;8.548;2023-04-06T04:46:39;100780.88;;;4.98
19568;BMP280;9930;49.240;8.548;2023-04-06T04:49:04;100800.84;;;5.07
19568;BMP280;9930;49.240;8.548;2023-04-06T04:51:30;100799.06;;;5.06
19568;BMP280;9930;49.240;8.548;2023-04-06T04:53:59;100799.84;;;5.05
19568;BMP280;9930;49.240;8.548;2023-04-06T04:56:29;100798.97;;;5.04
19568;BMP280;9930;49.240;8.548;2023-04-06T04:58:55;100796.25;;;5.01
19568;BMP280;9930;49.240;8.548;2023-04-06T05:01:21;100805.69;;;5.04
19568;BMP280;9930;49.240;8.548;2023-04-06T05:03:49;100793.41;;;4.97
19568;BMP280;9930;49.240;8.548;2023-04-06T05:06:18;100810.84;;;5.05
19568;BMP280;9930;49.240;8.548;2023-04-06T05:08:46;100805.69;;;5.04
19568;BMP280;9930;49.240;8.548;2023-04-06T05:11:12;100798.69;;;5.00
19568;BMP280;9930;49.240;8.548;2023-04-06T05:13:41;100798.56;;;4.98
19568;BMP280;9930;49.240;8.548;2023-04-06T05:16:09;100813.47;;;5.07
19568;BMP280;9930;49.240;8.548;2023-04-06T05:18:38;100806.47;;;5.03
19568;BMP280;9930;49.240;8.548;2023-04-06T05:21:04;100817.06;;;5.10
19568;BMP280;9930;49.240;8.548;2023-04-06T05:23:32;100803.94;;;5.03
19568;BMP280;9930;49.240;8.548;2023-04-06T05:25:58;100818.53;;;5.07
19568;BMP280;9930;49.240;8.548;2023-04-06T05:28:24;100815.03;;;5.05
19568;BMP280;9930;49.240;8.548;2023-04-06T05:30:50;100824.19;;;5.16
19568;BMP280;9930;49.240;8.548;2023-04-06T05:33:16;100831.97;;;5.19
19568;BMP280;9930;49.240;8.548;2023-04-06T05:35:44;100816.31;;;5.11
19568;BMP280;9930;49.240;8.548;2023-04-06T05:38:12;100833.91;;;5.23
19568;BMP280;9930;49.240;8.548;2023-04-06T05:40:43;100815.81;;;5.17
19568;BMP280;9930;49.240;8.548;2023-04-06T05:43:09;100828.25;;;5.27
19568;BMP280;9930;49.240;8.548;2023-04-06T05:45:35;100819.50;;;5.22
19568;BMP280;9930;49.240;8.548;2023-04-06T05:48:02;100831.97;;;5.32
19568;BMP280;9930;49.240;8.548;2023-04-06T05:50:28;100817.56;;;5.31
19568;BMP280;9930;49.240;8.548;2023-04-06T05:52:54;100835.78;;;5.39
19568;BMP280;9930;49.240;8.548;2023-04-06T05:55:22;100835.00;;;5.40
19568;BMP280;9930;49.240;8.548;2023-04-06T05:57:48;100825.75;;;5.40
19568;BMP280;9930;49.240;8.548;2023-04-06T06:00:14;100843.28;;;5.50
19568;BMP280;9930;49.240;8.548;2023-04-06T06:02:40;100820.00;;;5.43
19568;BMP280;9930;49.240;8.548;2023-04-06T06:05:08;100820.78;;;5.55
19568;BMP280;9930;49.240;8.548;2023-04-06T06:07:35;100826.16;;;5.60
19568;BMP280;9930;49.240;8.548;2023-04-06T06:10:01;100828.19;;;5.65
19568;BMP280;9930;49.240;8.548;2023-04-06T06:12:27;100819.34;;;5.72
19568;BMP280;9930;49.240;8.548;2023-04-06T06:14:55;100835.28;;;5.84
19568;BMP280;9930;49.240;8.548;2023-04-06T06:17:21;100831.31;;;5.88
19568;BMP280;9930;49.240;8.548;2023-04-06T06:19:47;100822.94;;;5.89
19568;BMP280;9930;49.240;8.548;2023-04-06T06:22:13;100828.00;;;6.02
19568;BMP280;9930;49.240;8.548;2023-04-06T06:24:44;100839.41;;;6.08
19568;BMP280;9930;49.240;8.548;2023-04-06T06:27:10;100840.66;;;6.15
19568;BMP280;9930;49.240;8.548;2023-04-06T06:29:38;100823.13;;;6.18
19568;BMP280;9930;49.240;8.548;2023-04-06T06:32:11;100833.97;;;6.43
19568;BMP280;9930;49.240;8.548;2023-04-06T06:34:37;100821.34;;;6.58
19568;BMP280;9930;49.240;8.548;2023-04-06T06:37:06;100830.06;;;6.91
19568;BMP280;9930;49.240;8.548;2023-04-06T06:39:33;100822.03;;;7.13
19568;BMP280;9930;49.240;8.548;2023-04-06T06:41:59;100817.66;;;7.40
19568;BMP280;9930;49.240;8.548;2023-04-06T06:44:28;100830.75;;;7.77
19568;BMP280;9930;49.240;8.548;2023-04-06T06:46:56;100814.16;;;7.98
19568;BMP280;9930;49.240;8.548;2023-04-06T06:49:26;100831.03;;;8.29
19568;BMP280;9930;49.240;8.548;2023-04-06T06:51:52;100824.09;;;8.41
19568;BMP280;9930;49.240;8.548;2023-04-06T06:54:20;100832.84;;;8.62
19568;BMP280;9930;49.240;8.548;2023-04-06T06:56:48;100821.31;;;8.69
19568;BMP280;9930;49.240;8.548;2023-04-06T06:59:14;100825.44;;;8.83
19568;BMP280;9930;49.240;8.548;2023-04-06T07:01:41;100821.63;;;8.91
19568;BMP280;9930;49.240;8.548;2023-04-06T07:04:10;100823.97;;;9.04
19568;BMP280;9930;49.240;8.548;2023-04-06T07:06:37;100819.44;;;9.15
19568;BMP280;9930;49.240;8.548;2023-04-06T07:09:03;100825.06;;;9.26
19568;BMP280;9930;49.240;8.548;2023-04-06T07:11:31;100802.78;;;9.22
19568;BMP280;9930;49.240;8.548;2023-04-06T07:13:57;100826.81;;;9.45
19568;BMP280;9930;49.240;8.548;2023-04-06T07:16:26;100815.03;;;9.47
19568;BMP280;9930;49.240;8.548;2023-04-06T07:18:51;100824.22;;;9.61
19568;BMP280;9930;49.240;8.548;2023-04-06T07:21:19;100810.53;;;9.59
19568;BMP280;9930;49.240;8.548;2023-04-06T07:23:48;100824.81;;;9.73
19568;BMP280;9930;49.240;8.548;2023-04-06T07:26:18;100826.75;;;9.79
19568;BMP280;9930;49.240;8.548;2023-04-06T07:28:46;100821.00;;;9.83
19568;BMP280;9930;49.240;8.548;2023-04-06T07:31:12;100827.19;;;9.88
19568;BMP280;9930;49.240;8.548;2023-04-06T07:33:40;100821.50;;;9.93
19568;BMP280;9930;49.240;8.548;2023-04-06T07:36:06;100810.44;;;9.93
19568;BMP280;9930;49.240;8.548;2023-04-06T07:38:33;100823.03;;;10.07
19568;BMP280;9930;49.240;8.548;2023-04-06T07:40:58;100806.94;;;10.09
19568;BMP280;9930;49.240;8.548;2023-04-06T07:43:24;100813.41;;;10.20
19568;BMP280;9930;49.240;8.548;2023-04-06T07:45:52;100817.59;;;10.37
19568;BMP280;9930;49.240;8.548;2023-04-06T07:48:19;100824.81;;;10.47
19568;BMP280;9930;49.240;8.548;2023-04-06T07:50:45;100821.81;;;10.56
19568;BMP280;9930;49.240;8.548;2023-04-06T07:53:10;100815.44;;;10.65
19568;BMP280;9930;49.240;8.548;2023-04-06T07:55:37;100818.31;;;10.73
19568;BMP280;9930;49.240;8.548;2023-04-06T07:58:03;100819.38;;;10.78
19568;BMP280;9930;49.240;8.548;2023-04-06T08:00:30;100807.56;;;10.80
19568;BMP280;9930;49.240;8.548;2023-04-06T08:02:56;100812.75;;;10.82
19568;BMP280;9930;49.240;8.548;2023-04-06T08:05:21;100811.13;;;10.84
19568;BMP280;9930;49.240;8.548;2023-04-06T08:07:50;100820.59;;;10.86
19568;BMP280;9930;49.240;8.548;2023-04-06T08:10:15;100814.75;;;10.89
19568;BMP280;9930;49.240;8.548;2023-04-06T08:12:41;100819.16;;;10.93
19568;BMP280;9930;49.240;8.548;2023-04-06T08:15:14;100804.72;;;10.93
19568;BMP280;9930;49.240;8.548;2023-04-06T08:17:44;100817.13;;;11.05
19568;BMP280;9930;49.240;8.548;2023-04-06T08:20:15;100815.66;;;11.10
19568;BMP280;9930;49.240;8.548;2023-04-06T08:22:43;100803.69;;;11.09
19568;BMP280;9930;49.240;8.548;2023-04-06T08:25:11;100804.81;;;11.16
19568;BMP280;9930;49.240;8.548;2023-04-06T08:27:39;100807.88;;;11.28
19568;BMP280;9930;49.240;8.548;2023-04-06T08:30:05;100813.41;;;11.39
19568;BMP280;9930;49.240;8.548;2023-04-06T08:32:31;100820.59;;;11.47
19568;BMP280;9930;49.240;8.548;2023-04-06T08:34:59;100813.28;;;11.56
19568;BMP280;9930;49.240;8.548;2023-04-06T08:37:25;100811.91;;;11.64
19568;BMP280;9930;49.240;8.548;2023-04-06T08:39:51;100815.69;;;11.74
19568;BMP280;9930;49.240;8.548;2023-04-06T08:42:21;100811.03;;;11.85
19568;BMP280;9930;49.240;8.548;2023-04-06T08:44:48;100809.66;;;11.93
19568;BMP280;9930;49.240;8.548;2023-04-06T08:47:18;100815.13;;;12.02
19568;BMP280;9930;49.240;8.548;2023-04-06T08:49:45;100818.06;;;12.13
19568;BMP280;9930;49.240;8.548;2023-04-06T08:52:12;100812.50;;;12.23
19568;BMP280;9930;49.240;8.548;2023-04-06T08:54:38;100805.81;;;12.26
19568;BMP280;9930;49.240;8.548;2023-04-06T08:57:05;100799.34;;;12.36
19568;BMP280;9930;49.240;8.548;2023-04-06T08:59:35;100807.63;;;12.53
19568;BMP280;9930;49.240;8.548;2023-04-06T09:02:05;100806.31;;;12.64
19568;BMP280;9930;49.240;8.548;2023-04-06T09:04:34;100794.50;;;12.68
19568;BMP280;9930;49.240;8.548;2023-04-06T09:07:03;100799.22;;;12.81
19568;BMP280;9930;49.240;8.548;2023-04-06T09:09:31;100797.81;;;12.89
19568;BMP280;9930;49.240;8.548;2023-04-06T09:11:59;100801.66;;;13.02
19568;BMP280;9930;49.240;8.548;2023-04-06T09:14:38;100804.53;;;13.11
19568;BMP280;9930;49.240;8.548;2023-04-06T09:17:06;100784.03;;;13.11
19568;BMP280;9930;49.240;8.548;2023-04-06T09:19:45;100795.63;;;13.25
19568;BMP280;9930;49.240;8.548;2023-04-06T09:22:11;100796.00;;;13.36
19568;BMP280;9930;49.240;8.548;2023-04-06T09:24:49;100800.59;;;13.46
19568;BMP280;9930;49.240;8.548;2023-04-06T09:27:16;100792.13;;;13.48
19568;BMP280;9930;49.240;8.548;2023-04-06T09:29:43;100769.97;;;13.50
19568;BMP280;9930;49.240;8.548;2023-04-06T09:32:11;100791.00;;;13.67
19568;BMP280;9930;49.240;8.548;2023-04-06T09:34:40;100790.34;;;13.73
19568;BMP280;9930;49.240;8.548;2023-04-06T09:37:17;100792.31;;;13.81
19568;BMP280;9930;49.240;8.548;2023-04-06T09:39:44;100786.63;;;13.91
19568;BMP280;9930;49.240;8.548;2023-04-06T09:42:23;100783.50;;;14.02
19568;BMP280;9930;49.240;8.548;2023-04-06T09:44:52;100783.75;;;14.09
19568;BMP280;9930;49.240;8.548;2023-04-06T09:47:19;100776.25;;;14.17
19568;BMP280;9930;49.240;8.548;2023-04-06T09:49:50;100770.34;;;14.19
19568;BMP280;9930;49.240;8.548;2023-04-06T09:52:27;100777.69;;;14.37
19568;BMP280;9930;49.240;8.548;2023-04-06T09:55:05;100767.59;;;14.42
19568;BMP280;9930;49.240;8.548;2023-04-06T09:57:58;100774.88;;;14.58
19568;BMP280;9930;49.240;8.548;2023-04-06T10:00:28;100772.59;;;14.69
19568;BMP280;9930;49.240;8.548;2023-04-06T10:06:08;100770.59;;;14.90
19568;BMP280;9930;49.240;8.548;2023-04-06T10:08:40;100764.00;;;15.00
19568;BMP280;9930;49.240;8.548;2023-04-06T10:11:15;100764.25;;;15.10
19568;BMP280;9930;49.240;8.548;2023-04-06T10:13:42;100756.63;;;15.13
19568;BMP280;9930;49.240;8.548;2023-04-06T10:16:14;100754.38;;;15.26
19568;BMP280;9930;49.240;8.548;2023-04-06T10:19:02;100761.53;;;15.39
19568;BMP280;9930;49.240;8.548;2023-04-06T10:21:34;100751.25;;;15.39
19568;BMP280;9930;49.240;8.548;2023-04-06T10:24:08;100758.31;;;15.47
19568;BMP280;9930;49.240;8.548;2023-04-06T10:26:41;100742.00;;;15.47
19568;BMP280;9930;49.240;8.548;2023-04-06T10:29:11;100761.19;;;15.60
19568;BMP280;9930;49.240;8.548;2023-04-06T10:31:42;100756.25;;;15.70
19568;BMP280;9930;49.240;8.548;2023-04-06T10:34:11;100756.47;;;15.79
19568;BMP280;9930;49.240;8.548;2023-04-06T10:36:39;100749.72;;;15.84
19568;BMP280;9930;49.240;8.548;2023-04-06T10:39:08;100742.13;;;15.91
19568;BMP280;9930;49.240;8.548;2023-04-06T10:41:35;100757.00;;;16.05
19568;BMP280;9930;49.240;8.548;2023-04-06T10:44:02;100752.06;;;16.14
19568;BMP280;9930;49.240;8.548;2023-04-06T10:46:32;100741.13;;;16.26
19568;BMP280;9930;49.240;8.548;2023-04-06T10:49:11;100734.38;;;16.31
19568;BMP280;9930;49.240;8.548;2023-04-06T10:51:40;100743.25;;;16.47
19568;BMP280;9930;49.240;8.548;2023-04-06T10:54:07;100745.16;;;16.57
19568;BMP280;9930;49.240;8.548;2023-04-06T10:56:38;100738.38;;;16.61
19568;BMP280;9930;49.240;8.548;2023-04-06T10:59:06;100738.63;;;16.73
19568;BMP280;9930;49.240;8.548;2023-04-06T11:01:32;100732.72;;;16.78
19568;BMP280;9930;49.240;8.548;2023-04-06T11:04:01;100736.28;;;16.87
19568;BMP280;9930;49.240;8.548;2023-04-06T11:06:30;100732.06;;;16.92
19568;BMP280;9930;49.240;8.548;2023-04-06T11:09:04;100726.09;;;16.94
19568;BMP280;9930;49.240;8.548;2023-04-06T11:11:29;100727.03;;;16.98
19568;BMP280;9930;49.240;8.548;2023-04-06T11:13:58;100709.88;;;17.00
19568;BMP280;9930;49.240;8.548;2023-04-06T11:16:31;100723.00;;;17.13
19568;BMP280;9930;49.240;8.548;2023-04-06T11:19:04;100714.50;;;17.19
19568;BMP280;9930;49.240;8.548;2023-04-06T11:21:42;100704.19;;;17.19
19568;BMP280;9930;49.240;8.548;2023-04-06T11:24:24;100712.13;;;17.33
19568;BMP280;9930;49.240;8.548;2023-04-06T11:26:58;100700.94;;;17.32
19568;BMP280;9930;49.240;8.548;2023-04-06T11:29:29;100702.72;;;17.38
19568;BMP280;9930;49.240;8.548;2023-04-06T11:32:04;100710.66;;;17.52
19568;BMP280;9930;49.240;8.548;2023-04-06T11:34:36;100704.69;;;17.54
19568;BMP280;9930;49.240;8.548;2023-04-06T11:37:11;100690.09;;;17.55
19568;BMP280;9930;49.240;8.548;2023-04-06T11:40:08;100699.69;;;17.65
19568;BMP280;9930;49.240;8.548;2023-04-06T11:42:34;100702.34;;;17.69
19568;BMP280;9930;49.240;8.548;2023-04-06T11:45:01;100692.97;;;17.74
19568;BMP280;9930;49.240;8.548;2023-04-06T11:47:35;100694.78;;;17.82
19568;BMP280;9930;49.240;8.548;2023-04-06T11:50:15;100687.94;;;17.85
19568;BMP280;9930;49.240;8.548;2023-04-06T11:52:42;100669.75;;;17.76
19568;BMP280;9930;49.240;8.548;2023-04-06T11:55:18;100668.88;;;17.74
19568;BMP280;9930;49.240;8.548;2023-04-06T11:57:44;100665.34;;;17.67
19568;BMP280;9930;49.240;8.548;2023-04-06T12:00:13;100667.97;;;17.72
19568;BMP280;9930;49.240;8.548;2023-04-06T12:02:47;100667.19;;;17.77
19568;BMP280;9930;49.240;8.548;2023-04-06T12:05:15;100661.13;;;17.72
19568;BMP280;9930;49.240;8.548;2023-04-06T12:07:41;100656.81;;;17.73
19568;BMP280;9930;49.240;8.548;2023-04-06T12:10:12;100669.84;;;17.82
19568;BMP280;9930;49.240;8.548;2023-04-06T12:12:38;100665.59;;;17.87
19568;BMP280;9930;49.240;8.548;2023-04-06T12:15:07;100666.53;;;17.94
19568;BMP280;9930;49.240;8.548;2023-04-06T12:17:33;100666.59;;;18.00
19568;BMP280;9930;49.240;8.548;2023-04-06T12:20:04;100652.88;;;18.04
19568;BMP280;9930;49.240;8.548;2023-04-06T12:22:34;100655.56;;;18.13
19568;BMP280;9930;49.240;8.548;2023-04-06T12:25:02;100653.00;;;18.15
19568;BMP280;9930;49.240;8.548;2023-04-06T12:27:30;100658.28;;;18.25
19568;BMP280;9930;49.240;8.548;2023-04-06T12:29:56;100653.13;;;18.28
19568;BMP280;9930;49.240;8.548;2023-04-06T12:32:27;100642.75;;;18.24
19568;BMP280;9930;49.240;8.548;2023-04-06T12:34:55;100639.41;;;18.31
19568;BMP280;9930;49.240;8.548;2023-04-06T12:37:21;100643.72;;;18.33
19568;BMP280;9930;49.240;8.548;2023-04-06T12:39:49;100635.94;;;18.30
19568;BMP280;9930;49.240;8.548;2023-04-06T12:42:15;100628.25;;;18.35
19568;BMP280;9930;49.240;8.548;2023-04-06T12:44:41;100625.66;;;18.35
19568;BMP280;9930;49.240;8.548;2023-04-06T12:47:10;100630.91;;;18.44
19568;BMP280;9930;49.240;8.548;2023-04-06T12:49:36;100646.44;;;18.47
19568;BMP280;9930;49.240;8.548;2023-04-06T12:52:03;100642.16;;;18.49
19568;BMP280;9930;49.240;8.548;2023-04-06T12:54:29;100624.06;;;18.48
19568;BMP280;9930;49.240;8.548;2023-04-06T12:56:55;100619.78;;;18.51
19568;BMP280;9930;49.240;8.548;2023-04-06T12:59:25;100624.09;;;18.54
19568;BMP280;9930;49.240;8.548;2023-04-06T13:01:51;100631.09;;;18.61
19568;BMP280;9930;49.240;8.548;2023-04-06T13:04:20;100619.84;;;18.60
19568;BMP280;9930;49.240;8.548;2023-04-06T13:06:46;100620.78;;;18.64
19568;BMP280;9930;49.240;8.548;2023-04-06T13:09:16;100632.00;;;18.67
19568;BMP280;9930;49.240;8.548;2023-04-06T13:11:42;100623.41;;;18.70
19568;BMP280;9930;49.240;8.548;2023-04-06T13:14:11;100623.44;;;18.73
19568;BMP280;9930;49.240;8.548;2023-04-06T13:16:42;100623.47;;;18.76
19568;BMP280;9930;49.240;8.548;2023-04-06T13:19:11;100623.50;;;18.81
19568;BMP280;9930;49.240;8.548;2023-04-06T13:21:41;100612.31;;;18.82
19568;BMP280;9930;49.240;8.548;2023-04-06T13:24:09;100605.38;;;18.76
19568;BMP280;9930;49.240;8.548;2023-04-06T13:26:38;100615.78;;;18.84
19568;BMP280;9930;49.240;8.548;2023-04-06T13:29:06;100606.28;;;18.81
19568;BMP280;9930;49.240;8.548;2023-04-06T13:31:33;100601.94;;;18.77
19568;BMP280;9930;49.240;8.548;2023-04-06T13:34:01;100584.66;;;18.68
19568;BMP280;9930;49.240;8.548;2023-04-06T13:36:29;100608.84;;;18.80
19568;BMP280;9930;49.240;8.548;2023-04-06T13:38:56;100598.41;;;18.67
19568;BMP280;9930;49.240;8.548;2023-04-06T13:41:25;100607.06;;;18.72
19568;BMP280;9930;49.240;8.548;2023-04-06T13:43:53;100606.16;;;18.67
19568;BMP280;9930;49.240;8.548;2023-04-06T13:46:23;100596.59;;;18.59
19568;BMP280;9930;49.240;8.548;2023-04-06T13:48:51;100602.69;;;18.61
19568;BMP280;9930;49.240;8.548;2023-04-06T13:51:20;100602.63;;;18.59
19568;BMP280;9930;49.240;8.548;2023-04-06T13:53:48;100601.75;;;18.59
19568;BMP280;9930;49.240;8.548;2023-04-06T13:56:18;100600.91;;;18.58
19568;BMP280;9930;49.240;8.548;2023-04-06T13:58:43;100592.22;;;18.52
19568;BMP280;9930;49.240;8.548;2023-04-06T14:01:09;100596.59;;;18.57
19568;BMP280;9930;49.240;8.548;2023-04-06T14:03:36;100598.31;;;18.58
19568;BMP280;9930;49.240;8.548;2023-04-06T14:06:13;100579.38;;;18.59
19568;BMP280;9930;49.240;8.548;2023-04-06T14:08:41;100583.69;;;18.60
19568;BMP280;9930;49.240;8.548;2023-04-06T14:11:14;100560.41;;;18.57
19568;BMP280;9930;49.240;8.548;2023-04-06T14:13:40;100586.38;;;18.68
19568;BMP280;9930;49.240;8.548;2023-04-06T14:16:07;100581.22;;;18.71
19568;BMP280;9930;49.240;8.548;2023-04-06T14:18:38;100591.63;;;18.82
19568;BMP280;9930;49.240;8.548;2023-04-06T14:21:04;100586.47;;;18.85
19568;BMP280;9930;49.240;8.548;2023-04-06T14:23:33;100578.72;;;18.82
19568;BMP280;9930;49.240;8.548;2023-04-06T14:26:09;100574.41;;;18.84